sensor_id;sensor_type;location;lat;lon;timestamp;pressure;altitude;pressure_sealevel;temperature;humidity
33185;BME280;19550;42.872;25.494;2023-04-06T00:00:09;96038.03;;;3.50;100.00
33185;BME280;19550;42.872;25.494;2023-04-06T00:02:38;96043.22;;;3.51;100.00
33185;BME280;19550;42.872;25.494;2023-04-06T00:05:05;96043.47;;;3.55;100.00
33185;BME280;19550;42.872;25.494;2023-04-06T00:07:33;96035.88;;;3.42;100.00
33185;BME280;19550;42.872;25.494;2023-04-06T00:10:01;96032.59;;;3.45;100.00
33185;BME280;19550;42.872;25.494;2023-04-06T00:12:28;96035.59;;;3.43;100.00
33185;BME280;19550;42.872;25.494;2023-04-06T00:14:55;96024.31;;;3.50;100.00
33185;BME280;19550;42.872;25.494;2023-04-06T00:17:22;96022.13;;;3.52;100.00
33185;BME280;19550;42.872;25.494;2023-04-06T00:19:50;96018.97;;;3.69;100.00
33185;BME280;19550;42.872;25.494;2023-04-06T00:22:17;96016.28;;;3.64;100.00
33185;BME280;19550;42.872;25.494;2023-04-06T00:24:44;96017.75;;;3.51;100.00
33185;BME280;19550;42.872;25.494;2023-04-06T00:27:10;96014.69;;;3.52;100.00
33185;BME280;19550;42.872;25.494;2023-04-06T00:29:37;96011.91;;;3.63;100.00
33185;BME280;19550;42.872;25.494;2023-04-06T00:32:04;96011.84;;;3.68;100.00
33185;BME280;19550;42.872;25.494;2023-04-06T00:34:31;96005.59;;;3.62;100.00
33185;BME280;19550;42.872;25.494;2023-04-06T00:36:59;96015.25;;;3.54;100.00
33185;BME280;19550;42.872;25.494;2023-04-06T00:39:26;96001.25;;;3.56;100.00
33185;BME280;19550;42.872;25.494;2023-04-06T00:41:53;96000.50;;;3.50;100.00
33185;BME280;19550;42.872;25.494;2023-04-06T00:44:20;95999.66;;;3.50;100.00
33185;BME280;19550;42.872;25.494;2023-04-06T00:46:48;95996.97;;;3.45;100.00
33185;BME280;19550;42.872;25.494;2023-04-06T00:49:15;95998.44;;;3.32;100.00
33185;BME280;19550;42.872;25.494;2023-04-06T00:51:42;95998.13;;;3.34;100.00
33185;BME280;19550;42.872;25.494;2023-04-06T00:54:10;95992.97;;;3.32;100.00
33185;BME280;19550;42.872;25.494;2023-04-06T00:56:37;95999.59;;;3.21;100.00
33185;BME280;19550;42.872;25.494;2023-04-06T00:59:04;95990.06;;;3.13;100.00
33185;BME280;19550;42.872;25.494;2023-04-06T01:01:31;95988.13;;;3.19;100.00
33185;BME280;19550;42.872;25.494;2023-04-06T01:03:58;95984.06;;;3.06;100.00
33185;BME280;19550;42.872;25.494;2023-04-06T01:06:25;95983.25;;;3.11;100.00
33185;BME280;19550;42.872;25.494;2023-04-06T01:08:52;95980.00;;;3.04;100.00
33185;BME280;19550;42.872;25.494;2023-04-06T01:11:20;95986.13;;;2.86;100.00
33185;BME280;19550;42.872;25.494;2023-04-06T01:13:48;95980.72;;;2.70;100.00
33185;BME280;19550;42.872;25.494;2023-04-06T01:16:15;95978.53;;;2.72;100.00
33185;BME280;19550;42.872;25.494;2023-04-06T01:18:41;95971.53;;;2.51;100.00
33185;BME280;19550;42.872;25.494;2023-04-06T01:21:09;95975.38;;;2.45;100.00
33185;BME280;19550;42.872;25.494;2023-04-06T01:23:44;95969.09;;;2.39;100.00
33185;BME280;19550;42.872;25.494;2023-04-06T01:26:12;95970.78;;;2.30;100.00
33185;BME280;19550;42.872;25.494;2023-04-06T01:28:39;95957.63;;;2.37;100.00
33185;BME280;19550;42.872;25.494;2023-04-06T01:31:07;95961.69;;;2.50;100.00
33185;BME280;19550;42.872;25.494;2023-04-06T01:33:34;95959.25;;;2.44;100.00
33185;BME280;19550;42.872;25.494;2023-04-06T01:36:01;95956.00;;;2.36;100.00
33185;BME280;19550;42.872;25.494;2023-04-06T01:38:28;95965.28;;;2.35;100.00
33185;BME280;19550;42.872;25.494;2023-04-06T01:40:57;95964.50;;;2.30;100.00
33185;BME280;19550;42.872;25.494;2023-04-06T01:43:24;95956.53;;;2.33;100.00
33185;BME280;19550;42.872;25.494;2023-04-06T01:45:50;95952.25;;;2.12;100.00
33185;BME280;19550;42.872;25.494;2023-04-06T01:48:18;95950.38;;;1.97;100.00
33185;BME280;19550;42.872;25.494;2023-04-06T01:50:44;95952.06;;;1.73;100.00
33185;BME280;19550;42.872;25.494;2023-04-06T01:53:11;95957.28;;;1.70;100.00
33185;BME280;19550;42.872;25.494;2023-04-06T01:55:38;95951.28;;;1.63;100.00
33185;BME280;19550;42.872;25.494;2023-04-06T01:58:06;95954.84;;;1.43;100.00
33185;BME280;19550;42.872;25.494;2023-04-06T02:00:33;95956.22;;;1.45;100.00
33185;BME280;19550;42.872;25.494;2023-04-06T02:03:00;95948.03;;;1.45;100.00
33185;BME280;19550;42.872;25.494;2023-04-06T02:05:30;95943.09;;;1.42;100.00
33185;BME280;19550;42.872;25.494;2023-04-06T02:07:58;95933.53;;;1.45;100.00
33185;BME280;19550;42.872;25.494;2023-04-06T02:10:25;95934.38;;;1.45;100.00
33185;BME280;19550;42.872;25.494;2023-04-06T02:12:52;95939.53;;;1.47;100.00
33185;BME280;19550;42.872;25.494;2023-04-06T02:15:20;95936.81;;;1.57;100.00
33185;BME280;19550;42.872;25.494;2023-04-06T02:17:47;95942.53;;;1.60;100.00
33185;BME280;19550;42.872;25.494;2023-04-06T02:20:14;95942.81;;;1.59;100.00
33185;BME280;19550;42.872;25.494;2023-04-06T02:22:41;95939.00;;;1.50;100.00
33185;BME280;19550;42.872;25.494;2023-04-06T02:25:08;95930.25;;;1.58;100.00
33185;BME280;19550;42.872;25.494;2023-04-06T02:27:35;95930.53;;;1.56;100.00
33185;BME280;19550;42.872;25.494;2023-04-06T02:30:02;95921.53;;;1.51;100.00
33185;BME280;19550;42.872;25.494;2023-04-06T02:32:30;95930.28;;;1.33;100.00
33185;BME280;19550;42.872;25.494;2023-04-06T02:34:57;95928.38;;;1.38;100.00
33185;BME280;19550;42.872;25.494;2023-04-06T02:37:24;95929.16;;;1.34;100.00
33185;BME280;19550;42.872;25.494;2023-04-06T02:39:51;95929.75;;;1.26;100.00
33185;BME280;19550;42.872;25.494;2023-04-06T02:42:18;95930.28;;;1.23;100.00
33185;BME280;19550;42.872;25.494;2023-04-06T02:44:45;95927.00;;;1.20;100.00
33185;BME280;19550;42.872;25.494;2023-04-06T02:47:12;95921.00;;;1.24;100.00
33185;BME280;19550;42.872;25.494;2023-04-06T02:49:40;95938.47;;;1.33;100.00
33185;BME280;19550;42.872;25.494;2023-04-06T02:52:07;95932.72;;;1.44;100.00
33185;BME280;19550;42.872;25.494;2023-04-06T02:54:34;95934.91;;;1.37;100.00
33185;BME280;19550;42.872;25.494;2023-04-06T02:57:00;95935.47;;;1.39;100.00
33185;BME280;19550;42.872;25.494;2023-04-06T02:59:27;95940.38;;;1.32;100.00
33185;BME280;19550;42.872;25.494;2023-04-06T03:01:54;95941.19;;;1.48;100.00
33185;BME280;19550;42.872;25.494;2023-04-06T03:04:21;95932.69;;;1.65;100.00
33185;BME280;19550;42.872;25.494;2023-04-06T03:06:53;95936.25;;;1.55;100.00
33185;BME280;19550;42.872;25.494;2023-04-06T03:09:20;95924.81;;;1.43;100.00
33185;BME280;19550;42.872;25.494;2023-04-06T03:11:47;95931.63;;;1.35;100.00
33185;BME280;19550;42.872;25.494;2023-04-06T03:14:14;95930.28;;;1.38;100.00
33185;BME280;19550;42.872;25.494;2023-04-06T03:16:42;95930.53;;;1.36;100.00
33185;BME280;19550;42.872;25.494;2023-04-06T03:19:09;95931.91;;;1.24;100.00
33185;BME280;19550;42.872;25.494;2023-04-06T03:21:36;95930.81;;;1.35;100.00
33185;BME280;19550;42.872;25.494;2023-04-06T03:24:05;95931.06;;;1.33;100.00
33185;BME280;19550;42.872;25.494;2023-04-06T03:26:32;95929.47;;;1.32;100.00
33185;BME280;19550;42.872;25.494;2023-04-06T03:28:59;95921.56;;;1.26;100.00
33185;BME280;19550;42.872;25.494;2023-04-06T03:31:26;95937.09;;;1.25;100.00
33185;BME280;19550;42.872;25.494;2023-04-06T03:33:53;95929.19;;;1.24;100.00
33185;BME280;19550;42.872;25.494;2023-04-06T03:36:20;95935.19;;;1.36;100.00
33185;BME280;19550;42.872;25.494;2023-04-06T03:38:47;95936.81;;;1.37;100.00
33185;BME280;19550;42.872;25.494;2023-04-06T03:41:15;95936.53;;;1.33;100.00
33185;BME280;19550;42.872;25.494;2023-04-06T03:43:42;95939.56;;;1.32;100.00
33185;BME280;19550;42.872;25.494;2023-04-06T03:46:09;95934.09;;;1.27;100.00
33185;BME280;19550;42.872;25.494;2023-04-06T03:48:36;95942.00;;;1.28;100.00
33185;BME280;19550;42.872;25.494;2023-04-06T03:51:03;95942.00;;;1.23;100.00
33185;BME280;19550;42.872;25.494;2023-04-06T03:53:29;95935.19;;;1.36;100.00
33185;BME280;19550;42.872;25.494;2023-04-06T03:55:56;95945.00;;;1.42;100.00
33185;BME280;19550;42.872;25.494;2023-04-06T03:58:25;95939.81;;;1.45;100.00
33185;BME280;19550;42.872;25.494;2023-04-06T04:00:51;95942.81;;;1.49;100.00
33185;BME280;19550;42.872;25.494;2023-04-06T04:03:18;95945.81;;;1.47;100.00
33185;BME280;19550;42.872;25.494;2023-04-06T04:05:46;95946.63;;;1.48;100.00
33185;BME280;19550;42.872;25.494;2023-04-06T04:08:13;95946.09;;;1.51;100.00
33185;BME280;19550;42.872;25.494;2023-04-06T04:10:40;95945.00;;;1.52;100.00
33185;BME280;19550;42.872;25.494;2023-04-06T04:13:07;95949.91;;;1.50;100.00
33185;BME280;19550;42.872;25.494;2023-04-06T04:15:38;95941.19;;;1.58;100.00
33185;BME280;19550;42.872;25.494;2023-04-06T04:18:05;95933.25;;;1.62;100.00
33185;BME280;19550;42.872;25.494;2023-04-06T04:20:32;95949.09;;;1.54;100.00
33185;BME280;19550;42.872;25.494;2023-04-06T04:22:59;95937.63;;;1.57;100.00
33185;BME280;19550;42.872;25.494;2023-04-06T04:25:28;95932.94;;;1.78;100.00
33185;BME280;19550;42.872;25.494;2023-04-06T04:27:55;95941.94;;;1.84;100.00
33185;BME280;19550;42.872;25.494;2023-04-06T04:30:22;95934.84;;;1.83;100.00
33185;BME280;19550;42.872;25.494;2023-04-06T04:32:50;95937.31;;;1.84;100.00
33185;BME280;19550;42.872;25.494;2023-04-06T04:35:17;95931.28;;;1.82;100.00
33185;BME280;19550;42.872;25.494;2023-04-06T04:37:44;95915.75;;;1.78;100.00
33185;BME280;19550;42.872;25.494;2023-04-06T04:40:11;95926.91;;;1.86;100.00
33185;BME280;19550;42.872;25.494;2023-04-06T04:42:39;95926.84;;;2.12;100.00
33185;BME280;19550;42.872;25.494;2023-04-06T04:45:06;95926.53;;;2.13;100.00
33185;BME280;19550;42.872;25.494;2023-04-06T04:47:33;95922.44;;;2.16;100.00
33185;BME280;19550;42.872;25.494;2023-04-06T04:50:01;95926.03;;;2.11;100.00
33185;BME280;19550;42.872;25.494;2023-04-06T04:52:28;95923.03;;;2.13;100.00
33185;BME280;19550;42.872;25.494;2023-04-06T04:54:55;95934.47;;;2.15;100.00
33185;BME280;19550;42.872;25.494;2023-04-06T04:57:22;95935.56;;;2.19;100.00
33185;BME280;19550;42.872;25.494;2023-04-06T04:59:49;95927.09;;;2.15;100.00
33185;BME280;19550;42.872;25.494;2023-04-06T05:02:16;95928.72;;;2.16;100.00
33185;BME280;19550;42.872;25.494;2023-04-06T05:04:43;95934.16;;;2.21;100.00
33185;BME280;19550;42.872;25.494;2023-04-06T05:07:11;95941.03;;;2.19;100.00
33185;BME280;19550;42.872;25.494;2023-04-06T05:09:38;95938.03;;;2.10;100.00
33185;BME280;19550;42.872;25.494;2023-04-06T05:12:05;95942.94;;;2.18;100.00
33185;BME280;19550;42.872;25.494;2023-04-06T05:14:32;95936.56;;;2.38;100.00
33185;BME280;19550;42.872;25.494;2023-04-06T05:16:59;95938.94;;;2.55;100.00
33185;BME280;19550;42.872;25.494;2023-04-06T05:19:26;95940.03;;;2.54;100.00
33185;BME280;19550;42.872;25.494;2023-04-06T05:21:53;95947.72;;;2.52;100.00
33185;BME280;19550;42.872;25.494;2023-04-06T05:24:21;95936.25;;;2.50;100.00
33185;BME280;19550;42.872;25.494;2023-04-06T05:26:48;95943.69;;;2.39;100.00
33185;BME280;19550;42.872;25.494;2023-04-06T05:29:16;95941.94;;;2.53;100.00
33185;BME280;19550;42.872;25.494;2023-04-06T05:31:43;95939.22;;;2.58;100.00
33185;BME280;19550;42.872;25.494;2023-04-06T05:34:10;95944.38;;;2.65;100.00
33185;BME280;19550;42.872;25.494;2023-04-06T05:36:38;95937.19;;;2.79;100.00
33185;BME280;19550;42.872;25.494;2023-04-06T05:39:05;95937.13;;;2.89;100.00
33185;BME280;19550;42.872;25.494;2023-04-06T05:41:33;95927.72;;;3.00;100.00
33185;BME280;19550;42.872;25.494;2023-04-06T05:44:00;95925.38;;;3.23;100.00
33185;BME280;19550;42.872;25.494;2023-04-06T05:46:27;95925.53;;;3.36;100.00
33185;BME280;19550;42.872;25.494;2023-04-06T05:48:54;95926.41;;;3.60;100.00
33185;BME280;19550;42.872;25.494;2023-04-06T05:51:21;95915.59;;;3.74;100.00
33185;BME280;19550;42.872;25.494;2023-04-06T05:53:48;95924.84;;;3.83;100.00
33185;BME280;19550;42.872;25.494;2023-04-06T05:56:15;95926.34;;;3.94;100.00
33185;BME280;19550;42.872;25.494;2023-04-06T05:58:43;95921.69;;;3.95;100.00
33185;BME280;19550;42.872;25.494;2023-04-06T06:01:10;95930.25;;;3.88;100.00
33185;BME280;19550;42.872;25.494;2023-04-06T06:03:37;95924.50;;;3.90;100.00
33185;BME280;19550;42.872;25.494;2023-04-06T06:06:04;95923.06;;;3.92;100.00
33185;BME280;19550;42.872;25.494;2023-04-06T06:08:31;95921.00;;;4.08;100.00
33185;BME280;19550;42.872;25.494;2023-04-06T06:10:59;95921.41;;;4.20;100.00
33185;BME280;19550;42.872;25.494;2023-04-06T06:13:25;95917.84;;;4.20;100.00
33185;BME280;19550;42.872;25.494;2023-04-06T06:15:54;95913.59;;;4.09;100.00
33185;BME280;19550;42.872;25.494;2023-04-06T06:18:21;95909.03;;;4.23;100.00
33185;BME280;19550;42.872;25.494;2023-04-06T06:20:47;95905.66;;;4.31;100.00
33185;BME280;19550;42.872;25.494;2023-04-06T06:23:14;95902.94;;;4.26;99.61
33185;BME280;19550;42.872;25.494;2023-04-06T06:25:41;95907.66;;;4.25;98.23
33185;BME280;19550;42.872;25.494;2023-04-06T06:28:08;95899.28;;;4.35;97.78
33185;BME280;19550;42.872;25.494;2023-04-06T06:30:35;95902.72;;;4.22;97.21
33185;BME280;19550;42.872;25.494;2023-04-06T06:33:03;95912.47;;;4.33;97.96
33185;BME280;19550;42.872;25.494;2023-04-06T06:35:30;95895.44;;;4.36;98.43
33185;BME280;19550;42.872;25.494;2023-04-06T06:37:57;95900.19;;;4.50;96.07
33185;BME280;19550;42.872;25.494;2023-04-06T06:40:23;95907.44;;;4.40;96.33
33185;BME280;19550;42.872;25.494;2023-04-06T06:42:51;95913.63;;;4.51;96.23
33185;BME280;19550;42.872;25.494;2023-04-06T06:45:18;95905.72;;;4.68;96.55
33185;BME280;19550;42.872;25.494;2023-04-06T06:47:45;95909.28;;;4.88;95.56
33185;BME280;19550;42.872;25.494;2023-04-06T06:50:14;95910.91;;;5.07;95.78
33185;BME280;19550;42.872;25.494;2023-04-06T06:52:40;95900.66;;;5.13;92.45
33185;BME280;19550;42.872;25.494;2023-04-06T06:55:09;95912.84;;;5.07;92.06
33185;BME280;19550;42.872;25.494;2023-04-06T06:57:36;95908.91;;;4.94;91.54
33185;BME280;19550;42.872;25.494;2023-04-06T07:00:05;95909.28;;;4.88;93.02
33185;BME280;19550;42.872;25.494;2023-04-06T07:02:34;95909.25;;;5.06;93.26
33185;BME280;19550;42.872;25.494;2023-04-06T07:05:02;95903.72;;;5.11;91.20
33185;BME280;19550;42.872;25.494;2023-04-06T07:07:31;95905.31;;;5.12;91.77
33185;BME280;19550;42.872;25.494;2023-04-06T07:09:58;95917.19;;;5.27;92.34
33185;BME280;19550;42.872;25.494;2023-04-06T07:12:24;95903.34;;;5.50;91.76
33185;BME280;19550;42.872;25.494;2023-04-06T07:14:51;95911.66;;;5.45;88.34
33185;BME280;19550;42.872;25.494;2023-04-06T07:17:18;95906.69;;;5.47;91.17
33185;BME280;19550;42.872;25.494;2023-04-06T07:19:45;95906.59;;;5.52;90.40
33185;BME280;19550;42.872;25.494;2023-04-06T07:22:12;95903.31;;;5.69;91.45
33185;BME280;19550;42.872;25.494;2023-04-06T07:24:40;95900.59;;;5.83;91.36
33185;BME280;19550;42.872;25.494;2023-04-06T07:27:07;95904.94;;;5.70;88.82
33185;BME280;19550;42.872;25.494;2023-04-06T07:29:34;95902.44;;;5.55;88.34
33185;BME280;19550;42.872;25.494;2023-04-06T07:32:01;95905.97;;;5.42;87.58
33185;BME280;19550;42.872;25.494;2023-04-06T07:34:28;95903.47;;;5.59;89.34
33185;BME280;19550;42.872;25.494;2023-04-06T07:36:54;95912.53;;;5.59;88.66
33185;BME280;19550;42.872;25.494;2023-04-06T07:39:22;95904.00;;;5.61;87.59
33185;BME280;19550;42.872;25.494;2023-04-06T07:41:50;95911.13;;;5.62;87.87
33185;BME280;19550;42.872;25.494;2023-04-06T07:44:17;95911.25;;;5.71;87.07
33185;BME280;19550;42.872;25.494;2023-04-06T07:46:44;95917.06;;;5.69;88.33
33185;BME280;19550;42.872;25.494;2023-04-06T07:49:10;95912.78;;;5.77;87.34
33185;BME280;19550;42.872;25.494;2023-04-06T07:51:38;95904.56;;;5.77;87.68
33185;BME280;19550;42.872;25.494;2023-04-06T07:54:05;95916.47;;;5.86;87.62
33185;BME280;19550;42.872;25.494;2023-04-06T07:56:32;95909.59;;;5.88;87.31
33185;BME280;19550;42.872;25.494;2023-04-06T07:59:00;95906.63;;;5.98;87.09
33185;BME280;19550;42.872;25.494;2023-04-06T08:01:28;95910.53;;;5.97;86.68
33185;BME280;19550;42.872;25.494;2023-04-06T08:03:55;95908.28;;;6.13;87.59
33185;BME280;19550;42.872;25.494;2023-04-06T08:06:22;95911.75;;;6.19;86.13
33185;BME280;19550;42.872;25.494;2023-04-06T08:08:49;95911.47;;;6.48;87.08
33185;BME280;19550;42.872;25.494;2023-04-06T08:11:16;95919.13;;;6.51;85.62
33185;BME280;19550;42.872;25.494;2023-04-06T08:13:43;95901.38;;;6.57;84.24
33185;BME280;19550;42.872;25.494;2023-04-06T08:16:12;95903.28;;;6.84;84.36
33185;BME280;19550;42.872;25.494;2023-04-06T08:18:39;95899.06;;;6.86;83.57
33185;BME280;19550;42.872;25.494;2023-04-06T08:21:05;95903.72;;;6.99;83.38
33185;BME280;19550;42.872;25.494;2023-04-06T08:23:32;95905.84;;;7.16;82.27
33185;BME280;19550;42.872;25.494;2023-04-06T08:25:59;95909.63;;;7.06;80.12
33185;BME280;19550;42.872;25.494;2023-04-06T08:28:26;95911.59;;;6.92;80.13
33185;BME280;19550;42.872;25.494;2023-04-06T08:30:53;95910.72;;;6.83;81.69
33185;BME280;19550;42.872;25.494;2023-04-06T08:33:21;95907.31;;;7.00;81.11
33185;BME280;19550;42.872;25.494;2023-04-06T08:35:48;95912.47;;;7.15;81.22
33185;BME280;19550;42.872;25.494;2023-04-06T08:38:15;95916.72;;;6.85;80.81
33185;BME280;19550;42.872;25.494;2023-04-06T08:40:42;95906.84;;;6.84;81.65
33185;BME280;19550;42.872;25.494;2023-04-06T08:43:14;95906.22;;;6.73;80.30
33185;BME280;19550;42.872;25.494;2023-04-06T08:45:43;95913.59;;;6.78;81.86
33185;BME280;19550;42.872;25.494;2023-04-06T08:48:11;95909.31;;;7.08;82.29
33185;BME280;19550;42.872;25.494;2023-04-06T08:50:40;95905.09;;;6.88;80.71
33185;BME280;19550;42.872;25.494;2023-04-06T08:53:07;95911.47;;;7.11;80.52
33185;BME280;19550;42.872;25.494;2023-04-06T08:55:35;95909.59;;;7.20;80.99
33185;BME280;19550;42.872;25.494;2023-04-06T08:58:03;95907.84;;;7.24;80.28
33185;BME280;19550;42.872;25.494;2023-04-06T09:00:30;95904.66;;;7.31;80.91
33185;BME280;19550;42.872;25.494;2023-04-06T09:02:58;95901.28;;;7.34;79.26
33185;BME280;19550;42.872;25.494;2023-04-06T09:05:25;95900.66;;;7.37;79.44
33185;BME280;19550;42.872;25.494;2023-04-06T09:07:53;95904.41;;;7.41;78.95
33185;BME280;19550;42.872;25.494;2023-04-06T09:10:21;95898.25;;;7.66;80.68
33185;BME280;19550;42.872;25.494;2023-04-06T09:12:49;95890.41;;;7.82;79.08
33185;BME280;19550;42.872;25.494;2023-04-06T09:15:20;95898.69;;;7.82;78.70
33185;BME280;19550;42.872;25.494;2023-04-06T09:17:47;95882.84;;;7.65;77.93
33185;BME280;19550;42.872;25.494;2023-04-06T09:20:14;95890.66;;;7.94;77.54
33185;BME280;19550;42.872;25.494;2023-04-06T09:22:42;95887.53;;;7.87;76.02
33185;BME280;19550;42.872;25.494;2023-04-06T09:25:18;95889.94;;;8.11;75.41
33185;BME280;19550;42.872;25.494;2023-04-06T09:27:46;95883.81;;;8.22;75.45
33185;BME280;19550;42.872;25.494;2023-04-06T09:30:14;95882.34;;;8.25;74.77
33185;BME280;19550;42.872;25.494;2023-04-06T09:32:48;95882.44;;;8.03;75.72
33185;BME280;19550;42.872;25.494;2023-04-06T09:35:16;95877.84;;;8.29;76.02
33185;BME280;19550;42.872;25.494;2023-04-06T09:37:43;95879.16;;;8.31;74.91
33185;BME280;19550;42.872;25.494;2023-04-06T09:40:13;95874.81;;;8.39;73.99
33185;BME280;19550;42.872;25.494;2023-04-06T09:42:45;95870.16;;;8.57;74.03
33185;BME280;19550;42.872;25.494;2023-04-06T09:45:13;95859.97;;;8.92;72.52
33185;BME280;19550;42.872;25.494;2023-04-06T09:47:42;95874.31;;;9.11;74.70
33185;BME280;19550;42.872;25.494;2023-04-06T09:50:10;95869.41;;;8.99;71.48
33185;BME280;19550;42.872;25.494;2023-04-06T09:52:39;95866.94;;;8.63;72.78
33185;BME280;19550;42.872;25.494;2023-04-06T09:55:08;95867.53;;;8.52;74.59
33185;BME280;19550;42.872;25.494;2023-04-06T09:57:44;95866.63;;;8.73;74.35
33185;BME280;19550;42.872;25.494;2023-04-06T10:00:16;95864.06;;;9.03;74.02
33185;BME280;19550;42.872;25.494;2023-04-06T10:02:48;95874.31;;;9.20;74.41
33185;BME280;19550;42.872;25.494;2023-04-06T10:05:20;95867.16;;;9.10;72.15
33185;BME280;19550;42.872;25.494;2023-04-06T10:07:50;95868.16;;;9.23;73.14
33185;BME280;19550;42.872;25.494;2023-04-06T10:10:20;95866.03;;;9.20;71.07
33185;BME280;19550;42.872;25.494;2023-04-06T10:12:49;95872.81;;;8.88;71.85
33185;BME280;19550;42.872;25.494;2023-04-06T10:15:16;95874.63;;;8.84;72.92
33185;BME280;19550;42.872;25.494;2023-04-06T10:17:43;95872.78;;;8.62;71.95
33185;BME280;19550;42.872;25.494;2023-04-06T10:20:14;95875.63;;;8.40;74.54
33185;BME280;19550;42.872;25.494;2023-04-06T10:22:45;95866.59;;;8.56;74.48
33185;BME280;19550;42.872;25.494;2023-04-06T10:25:26;95871.31;;;8.73;74.81
33185;BME280;19550;42.872;25.494;2023-04-06T10:28:00;95865.00;;;8.64;73.65
33185;BME280;19550;42.872;25.494;2023-04-06T10:30:28;95860.31;;;8.82;72.25
33185;BME280;19550;42.872;25.494;2023-04-06T10:32:55;95858.38;;;8.99;73.92
33185;BME280;19550;42.872;25.494;2023-04-06T10:35:22;95860.66;;;9.14;72.98
33185;BME280;19550;42.872;25.494;2023-04-06T10:37:52;95854.81;;;9.07;72.10
33185;BME280;19550;42.872;25.494;2023-04-06T10:40:21;95849.25;;;9.25;72.19
33185;BME280;19550;42.872;25.494;2023-04-06T10:42:48;95848.78;;;9.14;69.91
33185;BME280;19550;42.872;25.494;2023-04-06T10:45:21;95849.44;;;9.20;71.01
33185;BME280;19550;42.872;25.494;2023-04-06T10:47:48;95840.16;;;9.41;70.75
33185;BME280;19550;42.872;25.494;2023-04-06T10:50:15;95850.88;;;9.26;69.62
33185;BME280;19550;42.872;25.494;2023-04-06T10:52:44;95846.84;;;9.14;68.25
33185;BME280;19550;42.872;25.494;2023-04-06T10:55:12;95847.00;;;9.27;69.73
33185;BME280;19550;42.872;25.494;2023-04-06T10:57:39;95843.75;;;9.42;68.82
33185;BME280;19550;42.872;25.494;2023-04-06T11:00:07;95836.53;;;9.67;67.99
33185;BME280;19550;42.872;25.494;2023-04-06T11:02:36;95845.97;;;9.74;67.23
33185;BME280;19550;42.872;25.494;2023-04-06T11:05:03;95842.69;;;9.81;67.64
33185;BME280;19550;42.872;25.494;2023-04-06T11:07:30;95847.59;;;9.75;66.11
33185;BME280;19550;42.872;25.494;2023-04-06T11:09:57;95840.44;;;9.66;67.88
33185;BME280;19550;42.872;25.494;2023-04-06T11:12:25;95834.75;;;9.53;68.13
33185;BME280;19550;42.872;25.494;2023-04-06T11:14:54;95836.75;;;9.36;67.84
33185;BME280;19550;42.872;25.494;2023-04-06T11:17:25;95829.53;;;9.61;69.34
33185;BME280;19550;42.872;25.494;2023-04-06T11:19:54;95828.34;;;9.79;67.89
33185;BME280;19550;42.872;25.494;2023-04-06T11:22:21;95833.22;;;9.90;65.91
33185;BME280;19550;42.872;25.494;2023-04-06T11:24:48;95831.22;;;10.00;66.10
33185;BME280;19550;42.872;25.494;2023-04-06T11:27:15;95825.03;;;10.03;64.43
33185;BME280;19550;42.872;25.494;2023-04-06T11:29:43;95818.00;;;10.14;64.47
33185;BME280;19550;42.872;25.494;2023-04-06T11:32:11;95824.03;;;10.16;63.65
33185;BME280;19550;42.872;25.494;2023-04-06T11:34:39;95824.66;;;10.21;62.85
33185;BME280;19550;42.872;25.494;2023-04-06T11:37:09;95815.88;;;10.19;65.52
33185;BME280;19550;42.872;25.494;2023-04-06T11:39:38;95823.66;;;10.26;63.09
33185;BME280;19550;42.872;25.494;2023-04-06T11:42:05;95816.19;;;10.18;63.01
33185;BME280;19550;42.872;25.494;2023-04-06T11:44:34;95815.84;;;10.28;61.46
33185;BME280;19550;42.872;25.494;2023-04-06T11:47:01;95823.22;;;10.53;62.92
33185;BME280;19550;42.872;25.494;2023-04-06T11:49:29;95821.25;;;10.83;63.73
33185;BME280;19550;42.872;25.494;2023-04-06T11:51:57;95816.44;;;10.92;62.66
33185;BME280;19550;42.872;25.494;2023-04-06T11:54:32;95812.72;;;11.09;64.89
33185;BME280;19550;42.872;25.494;2023-04-06T11:57:00;95816.44;;;10.92;60.79
33185;BME280;19550;42.872;25.494;2023-04-06T11:59:27;95807.34;;;10.62;60.05
33185;BME280;19550;42.872;25.494;2023-04-06T12:01:55;95808.69;;;10.77;60.66
33185;BME280;19550;42.872;25.494;2023-04-06T12:04:22;95810.09;;;10.33;61.72
33185;BME280;19550;42.872;25.494;2023-04-06T12:06:49;95804.28;;;10.55;62.34
33185;BME280;19550;42.872;25.494;2023-04-06T12:09:16;95803.78;;;10.24;61.30
33185;BME280;19550;42.872;25.494;2023-04-06T12:11:45;95804.25;;;10.34;61.92
33185;BME280;19550;42.872;25.494;2023-04-06T12:14:12;95808.03;;;10.30;60.87
33185;BME280;19550;42.872;25.494;2023-04-06T12:16:39;95806.81;;;10.02;62.45
33185;BME280;19550;42.872;25.494;2023-04-06T12:19:06;95806.09;;;10.13;61.91
33185;BME280;19550;42.872;25.494;2023-04-06T12:21:34;95792.44;;;10.08;63.72
33185;BME280;19550;42.872;25.494;2023-04-06T12:24:02;95803.00;;;10.15;62.06
33185;BME280;19550;42.872;25.494;2023-04-06T12:26:29;95811.34;;;10.06;62.63
33185;BME280;19550;42.872;25.494;2023-04-06T12:28:58;95794.28;;;9.95;63.40
33185;BME280;19550;42.872;25.494;2023-04-06T12:31:30;95798.78;;;10.09;63.06
33185;BME280;19550;42.872;25.494;2023-04-06T12:33:57;95795.88;;;10.05;63.34
33185;BME280;19550;42.872;25.494;2023-04-06T12:36:24;95791.47;;;10.04;63.38
33185;BME280;19550;42.872;25.494;2023-04-06T12:38:51;95791.94;;;10.06;62.99
33185;BME280;19550;42.872;25.494;2023-04-06T12:41:18;95802.41;;;10.01;62.07
33185;BME280;19550;42.872;25.494;2023-04-06T12:43:45;95805.25;;;9.83;60.21
33185;BME280;19550;42.872;25.494;2023-04-06T12:46:14;95794.19;;;9.75;62.12
33185;BME280;19550;42.872;25.494;2023-04-06T12:48:41;95799.53;;;9.80;62.35
33185;BME280;19550;42.872;25.494;2023-04-06T12:51:07;95805.44;;;9.70;63.66
33185;BME280;19550;42.872;25.494;2023-04-06T12:53:35;95799.41;;;9.76;63.51
33185;BME280;19550;42.872;25.494;2023-04-06T12:56:02;95797.09;;;9.87;64.17